Time;durP1;ratioP1;P1;durP2;ratioP2;P2;SDS_P1;SDS_P2;PMS_P1;PMS_P2;Temp;Humidity;BMP_temperature;BMP_pressure;BME280_temperature;BME280_humidity;BME280_pressure;Samples;Min_cycle;Max_cycle;Signal;HPM_P1;HPM_P2
2021/11/08 00:00:47;;;;;;;9.03;6.87;;;9.70;99.90;;;;;;5037431;28;20882;-55
2021/11/08 00:03:16;;;;;;;11.10;6.00;;;9.80;99.90;;;;;;5036460;28;20549;-52
2021/11/08 00:05:44;;;;;;;9.37;6.17;;;9.80;99.90;;;;;;5033317;28;20460;-55
2021/11/08 00:08:12;;;;;;;15.40;6.53;;;9.70;99.90;;;;;;5027968;28;20642;-56
2021/11/08 00:10:38;;;;;;;10.20;5.77;;;9.70;99.90;;;;;;5036528;28;20401;-54
2021/11/08 00:13:07;;;;;;;8.60;6.23;;;9.70;99.90;;;;;;5036715;28;20422;-54
2021/11/08 00:18:30;;;;;;;6.87;5.40;;;9.70;99.90;;;;;;5035623;28;20502;-53
2021/11/08 00:20:57;;;;;;;8.43;5.70;;;9.60;99.90;;;;;;5036303;28;20447;-54
2021/11/08 00:23:23;;;;;;;8.70;5.93;;;9.50;99.90;;;;;;5036253;28;20434;-54
2021/11/08 00:25:49;;;;;;;11.97;6.30;;;9.60;99.90;;;;;;5035854;28;20401;-55
2021/11/08 00:28:19;;;;;;;11.67;6.40;;;9.70;99.90;;;;;;5035770;28;20786;-53
2021/11/08 00:30:47;;;;;;;8.07;6.50;;;9.70;99.90;;;;;;5035443;28;20225;-55
2021/11/08 00:33:15;;;;;;;7.80;5.80;;;9.50;99.90;;;;;;5034766;28;20424;-57
2021/11/08 00:35:41;;;;;;;8.17;5.70;;;9.60;99.90;;;;;;5035654;28;20414;-56
2021/11/08 00:38:08;;;;;;;15.03;6.30;;;9.60;99.90;;;;;;5035561;28;20449;-56
2021/11/08 00:40:35;;;;;;;9.40;7.00;;;9.60;99.90;;;;;;5035587;28;20968;-56
2021/11/08 00:43:02;;;;;;;13.10;6.60;;;9.70;99.90;;;;;;5035462;28;20414;-56
2021/11/08 00:45:27;;;;;;;11.93;6.63;;;9.80;99.90;;;;;;5034743;28;20414;-55
2021/11/08 00:47:55;;;;;;;7.83;5.90;;;9.70;99.90;;;;;;5035111;28;20827;-57
2021/11/08 00:50:20;;;;;;;10.63;6.40;;;9.50;99.90;;;;;;5035341;28;20201;-53
2021/11/08 00:52:48;;;;;;;13.87;6.87;;;9.60;99.90;;;;;;5035328;28;20410;-53
2021/11/08 00:55:15;;;;;;;10.20;5.57;;;9.50;99.90;;;;;;5034879;28;20535;-56
2021/11/08 00:57:43;;;;;;;9.27;6.10;;;9.50;99.90;;;;;;5034924;28;20914;-54
2021/11/08 01:00:13;;;;;;;12.40;6.97;;;9.40;99.90;;;;;;5035245;28;20496;-54
2021/11/08 01:02:39;;;;;;;10.67;6.80;;;9.10;99.90;;;;;;5035036;28;20416;-53
2021/11/08 01:05:06;;;;;;;8.13;6.17;;;8.80;99.90;;;;;;5034975;28;20408;-55
2021/11/08 01:07:32;;;;;;;7.03;4.93;;;8.60;99.90;;;;;;5035004;28;20524;-54
2021/11/08 01:09:59;;;;;;;7.53;5.50;;;8.60;99.90;;;;;;5035210;28;20482;-55
2021/11/08 01:12:25;;;;;;;7.67;4.93;;;8.50;99.90;;;;;;5034932;28;20182;-54
2021/11/08 01:14:53;;;;;;;11.53;6.33;;;8.50;99.90;;;;;;5034937;28;20412;-54
2021/11/08 01:17:20;;;;;;;9.73;6.83;;;8.40;99.90;;;;;;5035273;28;20401;-57
2021/11/08 01:19:46;;;;;;;8.60;6.10;;;8.30;99.90;;;;;;5034369;28;20546;-53
2021/11/08 01:22:20;;;;;;;9.60;5.60;;;8.20;99.90;;;;;;5035061;28;20404;-54
2021/11/08 01:24:55;;;;;;;12.53;6.40;;;8.20;99.90;;;;;;5034785;28;20385;-54
2021/11/08 01:27:49;;;;;;;11.13;7.27;;;8.10;99.90;;;;;;5034566;28;20756;-55
2021/11/08 01:30:24;;;;;;;8.97;6.60;;;8.00;99.90;;;;;;5035234;28;20408;-57
2021/11/08 01:32:58;;;;;;;10.37;6.23;;;7.70;99.90;;;;;;5034583;28;20935;-54
2021/11/08 01:35:30;;;;;;;10.73;7.30;;;7.70;99.90;;;;;;5034300;28;20421;-56
2021/11/08 01:38:11;;;;;;;8.17;6.30;;;7.60;99.90;;;;;;5034693;28;20532;-55
2021/11/08 01:40:38;;;;;;;16.10;7.37;;;7.50;99.90;;;;;;5034613;28;20404;-52
2021/11/08 01:43:05;;;;;;;8.77;6.10;;;7.50;99.90;;;;;;5034510;28;20405;-53
2021/11/08 01:45:31;;;;;;;13.47;7.80;;;7.40;99.90;;;;;;5034787;28;20449;-52
2021/11/08 01:47:57;;;;;;;7.20;5.93;;;7.40;99.90;;;;;;5034325;28;20450;-52
2021/11/08 01:50:24;;;;;;;8.60;6.30;;;7.50;99.90;;;;;;5031214;28;20406;-56
2021/11/08 01:52:51;;;;;;;10.50;6.70;;;7.50;99.90;;;;;;5034500;28;20767;-55
2021/11/08 01:55:17;;;;;;;7.43;6.60;;;7.50;99.90;;;;;;5034249;28;20402;-56
2021/11/08 01:57:44;;;;;;;9.17;7.03;;;7.40;99.90;;;;;;5033792;28;20779;-55
2021/11/08 02:00:13;;;;;;;11.70;6.17;;;7.40;99.90;;;;;;5025111;28;20479;-56
2021/11/08 02:02:40;;;;;;;7.30;5.40;;;7.30;99.90;;;;;;5025271;28;20799;-55
2021/11/08 02:05:05;;;;;;;11.33;7.30;;;7.30;99.90;;;;;;5031240;28;20972;-55
2021/11/08 02:07:31;;;;;;;16.53;6.70;;;7.20;99.90;;;;;;5033190;28;20409;-55
2021/11/08 02:09:58;;;;;;;13.63;7.30;;;7.20;99.90;;;;;;5034390;28;20165;-53
2021/11/08 02:12:24;;;;;;;9.27;6.57;;;7.10;99.90;;;;;;5033783;28;20644;-55
2021/11/08 02:14:50;;;;;;;9.73;6.00;;;7.10;99.90;;;;;;5033885;28;20456;-54
2021/11/08 02:17:15;;;;;;;12.37;6.87;;;7.10;99.90;;;;;;5034096;28;20408;-52
2021/11/08 02:19:41;;;;;;;9.87;6.33;;;7.10;99.90;;;;;;5033899;28;20214;-55
2021/11/08 02:22:07;;;;;;;11.20;6.37;;;7.10;99.90;;;;;;5034056;28;20512;-53
2021/11/08 02:24:35;;;;;;;12.90;6.07;;;7.00;99.90;;;;;;5034204;28;20457;-52
2021/11/08 02:27:01;;;;;;;13.20;5.97;;;7.00;99.90;;;;;;5034064;28;20174;-53
2021/11/08 02:29:27;;;;;;;12.80;6.57;;;6.90;99.90;;;;;;5033595;28;20430;-52
2021/11/08 02:31:53;;;;;;;12.63;6.20;;;6.90;99.90;;;;;;5033755;28;20753;-53
2021/11/08 02:34:19;;;;;;;12.33;6.90;;;6.80;99.90;;;;;;5033831;28;20262;-53
2021/11/08 02:36:45;;;;;;;8.20;5.40;;;6.80;99.90;;;;;;5033567;28;20501;-53
2021/11/08 02:39:26;;;;;;;7.07;5.67;;;6.80;99.90;;;;;;5033525;28;20457;-53
2021/11/08 02:41:52;;;;;;;12.10;6.90;;;6.80;99.90;;;;;;5032694;28;20410;-56
2021/11/08 02:44:18;;;;;;;7.67;5.90;;;6.70;99.90;;;;;;5034089;28;20752;-54
2021/11/08 02:46:43;;;;;;;9.23;6.60;;;6.70;99.90;;;;;;5033542;28;20554;-56
2021/11/08 02:49:12;;;;;;;13.00;7.20;;;6.70;99.90;;;;;;5033132;28;20214;-51
2021/11/08 02:51:44;;;;;;;9.70;6.90;;;6.70;99.90;;;;;;5033634;28;20172;-56
2021/11/08 02:54:15;;;;;;;15.80;8.10;;;6.70;99.90;;;;;;5033647;28;20524;-55
2021/11/08 02:56:41;;;;;;;13.00;7.70;;;6.70;99.90;;;;;;5033101;28;20394;-55
2021/11/08 02:59:07;;;;;;;10.57;5.67;;;6.70;99.90;;;;;;5033068;28;20453;-56
2021/11/08 03:01:33;;;;;;;11.50;6.10;;;6.70;99.90;;;;;;5033753;28;20620;-54
2021/11/08 03:04:01;;;;;;;11.87;7.77;;;6.60;99.90;;;;;;5023818;28;20167;-56
2021/11/08 03:08:54;;;;;;;10.33;7.00;;;6.70;99.90;;;;;;5033428;28;20430;-52
2021/11/08 03:11:22;;;;;;;9.03;6.87;;;6.70;99.90;;;;;;5032817;28;20406;-52
2021/11/08 03:14:07;;;;;;;13.20;8.03;;;6.70;99.90;;;;;;5033391;28;20888;-52
2021/11/08 03:16:46;;;;;;;10.17;5.83;;;6.70;99.90;;;;;;5033319;28;20374;-52
2021/11/08 03:21:42;;;;;;;6.63;5.90;;;6.80;99.90;;;;;;5037448;28;20409;-53
2021/11/08 03:24:13;;;;;;;7.60;6.47;;;6.80;99.90;;;;;;5037443;28;20486;-55
2021/11/08 03:29:34;;;;;;;13.67;7.93;;;6.80;99.90;;;;;;5032293;28;20438;-54
2021/11/08 03:32:00;;;;;;;11.67;6.40;;;6.80;99.90;;;;;;5037349;28;20898;-52
2021/11/08 03:34:29;;;;;;;8.93;6.83;;;6.70;99.90;;;;;;5036905;28;20644;-55
2021/11/08 03:36:56;;;;;;;10.63;7.30;;;6.70;99.90;;;;;;5036903;28;20903;-51
2021/11/08 03:39:22;;;;;;;10.23;6.77;;;6.60;99.90;;;;;;5036720;28;20540;-53
2021/11/08 03:41:48;;;;;;;7.80;5.60;;;6.50;99.90;;;;;;5036777;28;20480;-55
2021/11/08 03:44:14;;;;;;;11.93;6.90;;;6.50;99.90;;;;;;5036695;28;20860;-56
2021/11/08 03:46:39;;;;;;;12.33;6.13;;;6.50;99.90;;;;;;5036797;28;20171;-56
2021/11/08 03:49:05;;;;;;;6.90;5.60;;;6.50;99.90;;;;;;5036209;28;20222;-53
2021/11/08 03:51:31;;;;;;;17.57;7.13;;;6.50;99.90;;;;;;5033411;28;20203;-54
2021/11/08 03:53:56;;;;;;;14.07;7.03;;;6.50;99.90;;;;;;5027922;28;20182;-54
2021/11/08 03:56:22;;;;;;;11.30;6.90;;;6.50;99.90;;;;;;5036562;28;20181;-52
2021/11/08 03:58:48;;;;;;;8.97;6.07;;;6.50;99.90;;;;;;5036575;28;20207;-51
2021/11/08 04:01:14;;;;;;;14.30;6.83;;;6.60;99.90;;;;;;5033572;28;20172;-54
2021/11/08 04:03:40;;;;;;;10.40;5.30;;;6.50;99.90;;;;;;5035475;28;20171;-54
2021/11/08 04:06:05;;;;;;;13.67;6.03;;;6.40;99.90;;;;;;5036848;28;20821;-55
2021/11/08 04:08:31;;;;;;;14.17;5.80;;;6.30;99.90;;;;;;5036110;28;20430;-53
2021/11/08 04:10:57;;;;;;;9.90;6.67;;;6.30;99.90;;;;;;5036609;28;20258;-53
2021/11/08 04:13:34;;;;;;;11.87;6.13;;;6.20;99.90;;;;;;5036580;28;20167;-53
2021/11/08 04:16:02;;;;;;;11.50;6.50;;;6.20;99.90;;;;;;5036584;28;20413;-52
2021/11/08 04:18:28;;;;;;;8.63;6.10;;;6.10;99.90;;;;;;5035752;28;20462;-52
2021/11/08 04:20:57;;;;;;;14.00;6.10;;;6.20;99.90;;;;;;5036386;28;20413;-54
2021/11/08 04:23:24;;;;;;;12.63;6.60;;;6.20;99.90;;;;;;5035737;28;20461;-56
2021/11/08 04:25:54;;;;;;;7.73;5.33;;;6.20;99.90;;;;;;5036144;28;20421;-57
2021/11/08 04:28:21;;;;;;;6.90;5.33;;;6.20;99.90;;;;;;5036188;28;20930;-53
2021/11/08 04:30:47;;;;;;;12.00;7.67;;;6.20;99.90;;;;;;5034840;28;20445;-53
2021/11/08 04:35:45;;;;;;;8.00;5.30;;;6.20;99.90;;;;;;5036209;28;20187;-52
2021/11/08 04:43:50;;;;;;;9.20;6.50;;;6.30;99.90;;;;;;5036206;28;20752;-55
2021/11/08 04:49:01;;;;;;;7.93;5.30;;;6.40;99.90;;;;;;5062510;22;20602;-55
2021/11/08 05:21:59;;;;;;;10.43;6.50;;;6.00;99.90;;;;;;5034846;28;20410;-58
2021/11/08 05:24:38;;;;;;;10.03;6.00;;;6.10;99.90;;;;;;5034821;28;20379;-53
2021/11/08 05:32:20;;;;;;;15.13;5.80;;;6.00;99.90;;;;;;5035150;28;20155;-58
2021/11/08 05:34:47;;;;;;;9.03;5.80;;;5.80;99.90;;;;;;5034492;28;20520;-55
2021/11/08 05:37:13;;;;;;;8.93;5.97;;;5.70;99.90;;;;;;5034425;28;20597;-58
2021/11/08 05:39:46;;;;;;;7.30;6.03;;;5.80;99.90;;;;;;5034219;28;20457;-58
2021/11/08 05:42:12;;;;;;;9.13;6.70;;;5.70;99.90;;;;;;5034608;28;20763;-58
2021/11/08 05:44:40;;;;;;;12.30;7.13;;;5.70;99.90;;;;;;5034517;28;20414;-58
2021/11/08 05:47:06;;;;;;;11.53;7.43;;;5.70;99.90;;;;;;5034297;28;20493;-57
2021/11/08 05:49:32;;;;;;;13.20;7.70;;;5.80;99.90;;;;;;5033794;28;21011;-56
2021/11/08 05:51:58;;;;;;;11.47;7.00;;;6.00;99.90;;;;;;5034527;28;20402;-56
2021/11/08 05:54:24;;;;;;;8.70;6.53;;;6.20;99.90;;;;;;5034680;28;20488;-58
2021/11/08 05:59:57;;;;;;;11.90;6.90;;;6.40;99.90;;;;;;5034649;28;20207;-58
2021/11/08 06:51:23;;;;;;;6.47;5.87;;;6.20;99.90;;;;;;5027924;28;20895;-57
2021/11/08 06:53:51;;;;;;;15.30;7.70;;;6.30;99.90;;;;;;5031405;28;21011;-54
2021/11/08 06:56:24;;;;;;;10.80;7.33;;;6.30;99.90;;;;;;5030974;28;20528;-53
2021/11/08 06:58:50;;;;;;;7.97;5.87;;;6.30;99.90;;;;;;5033114;28;20462;-54
2021/11/08 07:01:16;;;;;;;8.83;6.13;;;6.30;99.90;;;;;;5031885;28;20933;-52
2021/11/08 07:03:41;;;;;;;12.43;6.43;;;6.40;99.90;;;;;;5033012;28;20179;-54
2021/11/08 07:06:07;;;;;;;8.13;6.53;;;6.30;99.90;;;;;;5031184;28;20266;-52
2021/11/08 07:08:33;;;;;;;10.67;6.63;;;6.30;99.90;;;;;;5032677;28;20686;-57
2021/11/08 07:10:58;;;;;;;8.53;5.70;;;6.30;99.90;;;;;;5032778;28;20413;-52
2021/11/08 07:13:24;;;;;;;9.37;5.90;;;6.30;99.90;;;;;;5032735;28;20213;-54
2021/11/08 07:15:50;;;;;;;11.80;5.73;;;6.40;99.90;;;;;;5033325;28;20210;-52
2021/11/08 07:18:17;;;;;;;10.00;5.60;;;6.40;99.90;;;;;;5033100;28;20225;-54
2021/11/08 07:20:43;;;;;;;10.30;5.93;;;6.40;99.90;;;;;;5032573;28;20245;-55
2021/11/08 07:23:09;;;;;;;11.10;5.83;;;6.40;99.90;;;;;;5033086;28;20402;-54
2021/11/08 07:25:35;;;;;;;9.63;7.10;;;6.50;99.90;;;;;;5032979;28;20775;-57
2021/11/08 07:28:04;;;;;;;10.87;5.70;;;6.50;99.90;;;;;;5032349;28;20182;-57
2021/11/08 07:30:30;;;;;;;10.87;6.40;;;6.60;99.90;;;;;;5032592;28;20732;-58
2021/11/08 07:32:56;;;;;;;8.03;5.37;;;6.60;99.90;;;;;;5032710;28;20419;-56
2021/11/08 07:35:22;;;;;;;8.80;5.90;;;6.50;99.90;;;;;;5032120;28;20456;-57
2021/11/08 07:37:47;;;;;;;7.57;5.57;;;6.60;99.90;;;;;;5032548;28;20167;-52
2021/11/08 07:40:13;;;;;;;7.90;5.60;;;6.70;99.90;;;;;;5032667;28;20671;-53
2021/11/08 07:42:41;;;;;;;8.03;5.77;;;6.70;99.90;;;;;;5032266;28;20600;-57
2021/11/08 07:45:08;;;;;;;11.87;6.23;;;6.80;99.90;;;;;;5032688;28;20256;-56
2021/11/08 07:47:34;;;;;;;7.97;5.40;;;6.90;99.90;;;;;;5032022;28;20418;-57
2021/11/08 07:50:00;;;;;;;10.27;5.73;;;6.90;99.90;;;;;;5032603;28;20450;-52
2021/11/08 07:52:25;;;;;;;11.30;5.70;;;6.90;99.90;;;;;;5032504;28;20621;-58
2021/11/08 07:54:51;;;;;;;12.00;4.90;;;7.00;99.90;;;;;;5031710;28;21133;-56
2021/11/08 07:57:17;;;;;;;9.97;5.60;;;7.00;99.90;;;;;;5032281;28;20182;-55
2021/11/08 07:59:45;;;;;;;7.80;5.50;;;7.00;99.90;;;;;;5031872;28;20966;-54
2021/11/08 08:02:10;;;;;;;12.43;7.50;;;7.10;99.90;;;;;;5032694;28;20414;-57
2021/11/08 08:04:36;;;;;;;9.70;7.20;;;7.20;99.90;;;;;;5032151;28;20425;-56
2021/11/08 08:07:02;;;;;;;14.67;7.60;;;7.30;99.90;;;;;;5032442;28;20184;-57
2021/11/08 08:09:28;;;;;;;9.70;6.80;;;7.30;99.90;;;;;;5036612;28;20196;-55
2021/11/08 08:11:53;;;;;;;11.00;6.50;;;7.40;99.90;;;;;;5037331;28;20175;-55
2021/11/08 08:14:19;;;;;;;7.87;6.50;;;7.40;99.90;;;;;;5036126;28;20638;-56
2021/11/08 08:16:45;;;;;;;9.60;6.33;;;7.60;99.90;;;;;;5036728;28;20425;-57
2021/11/08 08:19:11;;;;;;;9.97;6.53;;;7.70;99.90;;;;;;5035076;28;20209;-55
2021/11/08 08:21:37;;;;;;;9.10;6.27;;;7.70;99.90;;;;;;5034708;28;20415;-54
2021/11/08 08:24:03;;;;;;;11.57;7.10;;;7.80;99.90;;;;;;5036007;28;20199;-57
2021/11/08 08:26:35;;;;;;;11.83;7.43;;;7.90;99.90;;;;;;5036001;28;20549;-57
2021/11/08 08:29:05;;;;;;;13.87;8.93;;;8.00;99.90;;;;;;5035516;28;20526;-55
2021/11/08 08:31:32;;;;;;;8.03;7.10;;;8.00;99.90;;;;;;5035530;28;20461;-54
2021/11/08 08:33:58;;;;;;;13.63;9.10;;;8.10;99.90;;;;;;5034779;28;20434;-58
2021/11/08 08:36:24;;;;;;;11.83;8.83;;;8.20;99.90;;;;;;5035728;28;20486;-57
2021/11/08 08:38:50;;;;;;;15.00;8.63;;;8.30;99.90;;;;;;5035292;28;20608;-56
2021/11/08 08:41:17;;;;;;;16.67;9.80;;;8.40;99.90;;;;;;5034989;28;20429;-56
2021/11/08 08:43:43;;;;;;;13.07;9.83;;;8.40;99.90;;;;;;5035676;28;20774;-52
2021/11/08 08:46:08;;;;;;;18.80;12.37;;;8.40;99.90;;;;;;5035446;28;20417;-56
2021/11/08 08:48:34;;;;;;;20.77;13.00;;;8.50;99.90;;;;;;5035517;28;20456;-53
2021/11/08 08:51:01;;;;;;;11.97;10.20;;;8.50;99.90;;;;;;5035626;28;20185;-56
2021/11/08 08:53:27;;;;;;;12.43;10.10;;;8.50;99.90;;;;;;5035201;28;20982;-58
2021/11/08 08:55:54;;;;;;;16.83;10.87;;;8.60;99.90;;;;;;5034511;28;20417;-55
2021/11/08 08:58:20;;;;;;;14.07;10.90;;;8.80;99.90;;;;;;5033474;28;20457;-54
2021/11/08 09:00:48;;;;;;;12.90;10.80;;;8.80;99.90;;;;;;5035151;28;20463;-54
2021/11/08 09:03:16;;;;;;;13.73;10.20;;;8.90;99.90;;;;;;5034634;28;20178;-57
2021/11/08 09:05:43;;;;;;;13.10;10.50;;;8.90;99.90;;;;;;5035135;28;20453;-57
2021/11/08 09:08:09;;;;;;;15.43;10.60;;;9.00;99.90;;;;;;5035480;28;20495;-57
2021/11/08 09:10:36;;;;;;;15.77;10.10;;;9.20;99.90;;;;;;5035038;28;20423;-58
2021/11/08 09:13:03;;;;;;;13.70;9.50;;;9.30;99.90;;;;;;5033495;28;20183;-54
2021/11/08 09:15:29;;;;;;;11.83;8.47;;;9.40;99.90;;;;;;5034672;28;20821;-58
2021/11/08 09:17:56;;;;;;;19.53;9.33;;;9.40;99.90;;;;;;5033892;28;20882;-58
2021/11/08 09:20:22;;;;;;;14.43;7.43;;;9.50;99.90;;;;;;5034786;28;20568;-58
2021/11/08 09:22:50;;;;;;;10.23;8.30;;;9.60;99.90;;;;;;5034854;28;20410;-54
2021/11/08 09:25:17;;;;;;;12.57;8.90;;;9.70;99.90;;;;;;5034914;28;20407;-53
2021/11/08 09:27:47;;;;;;;14.47;11.00;;;9.70;99.90;;;;;;5034805;28;20567;-52
2021/11/08 09:30:15;;;;;;;14.37;10.87;;;9.70;99.90;;;;;;5034903;28;20928;-57
2021/11/08 09:32:42;;;;;;;11.93;10.43;;;9.60;99.90;;;;;;5034338;28;20781;-52
2021/11/08 09:35:09;;;;;;;17.70;12.20;;;9.50;99.90;;;;;;5034493;28;20413;-56
2021/11/08 09:37:42;;;;;;;19.10;11.50;;;9.60;99.90;;;;;;5033532;28;20420;-58
2021/11/08 09:40:12;;;;;;;12.33;10.80;;;9.60;99.90;;;;;;5033929;28;20496;-57
2021/11/08 09:42:39;;;;;;;18.93;11.77;;;9.70;99.90;;;;;;5033922;28;20923;-57
2021/11/08 09:45:06;;;;;;;14.27;10.60;;;9.60;99.90;;;;;;5034520;28;20851;-57
2021/11/08 09:47:34;;;;;;;16.40;10.73;;;9.70;99.90;;;;;;5030626;28;20430;-57
2021/11/08 09:50:03;;;;;;;23.10;12.93;;;9.80;99.90;;;;;;5033900;28;20457;-58
2021/11/08 09:52:37;;;;;;;22.47;12.00;;;9.90;99.90;;;;;;5033810;28;20417;-58
2021/11/08 09:55:04;;;;;;;17.77;11.17;;;10.00;99.90;;;;;;5034287;28;20410;-57
2021/11/08 09:57:30;;;;;;;13.87;10.90;;;9.70;99.90;;;;;;5032515;28;20426;-52
2021/11/08 09:59:56;;;;;;;16.60;11.67;;;9.80;99.90;;;;;;5032516;28;20468;-58
2021/11/08 10:02:22;;;;;;;18.03;9.57;;;9.80;99.90;;;;;;5034198;28;20905;-56
2021/11/08 10:04:48;;;;;;;17.97;9.87;;;9.70;99.90;;;;;;5032923;28;20179;-58
2021/11/08 10:07:15;;;;;;;17.30;10.20;;;10.00;99.90;;;;;;5033975;28;20787;-55
2021/11/08 10:09:41;;;;;;;21.57;10.90;;;10.20;99.90;;;;;;5018651;28;20435;-58
2021/11/08 10:12:10;;;;;;;11.57;7.93;;;10.40;99.90;;;;;;5014175;28;20410;-55
2021/11/08 10:14:37;;;;;;;19.70;10.03;;;10.70;99.90;;;;;;5018710;28;20532;-56
2021/11/08 10:17:03;;;;;;;21.70;9.53;;;10.90;99.90;;;;;;5034138;28;20413;-58
2021/11/08 10:19:32;;;;;;;20.20;10.10;;;11.20;99.90;;;;;;5033947;28;20484;-55
2021/11/08 10:21:58;;;;;;;12.17;10.17;;;11.20;99.90;;;;;;5033782;28;20409;-57
2021/11/08 10:24:31;;;;;;;18.30;10.87;;;11.20;99.90;;;;;;5032661;28;20458;-55
2021/11/08 10:27:01;;;;;;;15.23;10.67;;;11.20;99.90;;;;;;5034082;28;20387;-56
2021/11/08 10:29:27;;;;;;;11.57;8.90;;;11.10;99.90;;;;;;5033096;28;20418;-57
2021/11/08 10:31:59;;;;;;;20.80;8.80;;;10.90;99.90;;;;;;5033541;28;20432;-55
2021/11/08 10:34:25;;;;;;;13.43;9.37;;;10.80;99.90;;;;;;5033711;28;20158;-58
2021/11/08 10:37:06;;;;;;;14.37;9.87;;;10.70;99.90;;;;;;5033813;28;20406;-57
2021/11/08 10:39:34;;;;;;;14.03;8.17;;;11.00;99.90;;;;;;5031759;28;20500;-57
2021/11/08 10:42:00;;;;;;;13.00;7.40;;;10.70;99.90;;;;;;5032010;28;20412;-58
2021/11/08 10:44:25;;;;;;;13.13;8.63;;;10.50;99.90;;;;;;5033626;28;20540;-57
2021/11/08 10:47:10;;;;;;;13.90;8.63;;;10.30;99.90;;;;;;5033453;28;20221;-57
2021/11/08 10:49:42;;;;;;;12.87;8.40;;;10.20;99.90;;;;;;5011351;22;1072195;-54
2021/11/08 10:52:08;;;;;;;16.00;8.67;;;10.40;99.90;;;;;;5030195;28;20489;-58
2021/11/08 10:54:37;;;;;;;14.63;9.40;;;10.60;99.90;;;;;;5033076;28;20406;-58
2021/11/08 10:57:06;;;;;;;16.43;8.33;;;10.20;99.90;;;;;;5033136;28;20418;-55
2021/11/08 10:59:42;;;;;;;13.60;7.90;;;10.30;99.90;;;;;;5032593;28;20981;-56
2021/11/08 11:02:11;;;;;;;14.20;7.03;;;10.30;99.90;;;;;;5032799;28;20825;-57
2021/11/08 11:04:47;;;;;;;14.93;7.10;;;10.40;99.90;;;;;;5031599;28;20395;-59
2021/11/08 11:07:20;;;;;;;13.20;7.60;;;10.40;99.90;;;;;;5032914;28;20391;-59
2021/11/08 11:09:46;;;;;;;15.50;7.40;;;10.40;99.90;;;;;;5032806;28;20428;-58
2021/11/08 11:12:26;;;;;;;10.00;6.70;;;10.60;99.90;;;;;;5033142;28;20495;-56
2021/11/08 11:14:56;;;;;;;18.37;9.27;;;10.90;99.90;;;;;;5033325;28;20398;-58
2021/11/08 11:17:31;;;;;;;11.50;8.40;;;11.20;99.90;;;;;;5033296;28;20386;-58
2021/11/08 11:20:13;;;;;;;8.10;7.20;;;11.60;99.90;;;;;;5032503;28;20563;-58
2021/11/08 11:22:43;;;;;;;16.60;8.77;;;11.50;99.90;;;;;;5032887;28;20465;-56
2021/11/08 11:25:12;;;;;;;9.80;6.40;;;11.30;99.90;;;;;;5032712;28;20383;-58
2021/11/08 11:27:47;;;;;;;13.70;7.53;;;11.40;99.90;;;;;;5033274;28;20891;-57
2021/11/08 11:30:18;;;;;;;12.50;7.50;;;11.50;99.90;;;;;;5033316;28;20428;-56
2021/11/08 11:32:54;;;;;;;10.07;6.53;;;11.30;99.90;;;;;;5033296;28;20443;-58
2021/11/08 11:35:20;;;;;;;10.73;6.00;;;11.20;99.90;;;;;;5032902;28;20391;-58
2021/11/08 11:37:56;;;;;;;12.43;6.50;;;11.50;99.90;;;;;;5033521;28;20503;-55
2021/11/08 11:40:23;;;;;;;13.57;6.40;;;11.90;99.90;;;;;;5034053;28;20187;-56
2021/11/08 11:42:51;;;;;;;9.70;6.03;;;13.00;99.90;;;;;;5037052;28;20493;-58
2021/11/08 11:45:18;;;;;;;15.50;6.70;;;14.90;99.90;;;;;;5036454;28;20471;-60
2021/11/08 11:48:04;;;;;;;8.23;5.83;;;16.70;99.90;;;;;;5036311;28;20412;-55
2021/11/08 11:50:32;;;;;;;10.53;5.43;;;18.80;97.40;;;;;;5036169;28;20549;-58
2021/11/08 11:52:59;;;;;;;9.33;5.87;;;18.50;95.50;;;;;;5036457;28;20406;-58
2021/11/08 11:55:25;;;;;;;10.97;5.50;;;17.70;96.40;;;;;;5036559;28;20402;-58
2021/11/08 11:57:55;;;;;;;9.80;6.07;;;17.40;96.90;;;;;;5036309;28;20920;-57
2021/11/08 12:00:22;;;;;;;9.47;6.27;;;17.90;96.10;;;;;;5035999;28;20183;-56
2021/11/08 12:02:50;;;;;;;11.23;5.70;;;18.90;95.10;;;;;;5036381;28;20402;-56
2021/11/08 12:05:17;;;;;;;10.53;6.40;;;19.10;94.00;;;;;;5035696;28;20406;-58
2021/11/08 12:07:43;;;;;;;8.70;5.10;;;19.10;94.00;;;;;;5036128;28;20509;-58
2021/11/08 12:10:09;;;;;;;10.40;4.10;;;19.80;93.20;;;;;;5036355;28;20846;-57
2021/11/08 12:12:36;;;;;;;10.47;5.17;;;18.50;93.50;;;;;;5036105;28;20402;-56
2021/11/08 12:15:07;;;;;;;7.27;4.47;;;19.00;93.60;;;;;;5036695;28;20410;-56
2021/11/08 12:17:52;;;;;;;9.47;4.53;;;20.00;92.30;;;;;;5027641;28;20818;-57
2021/11/08 12:20:25;;;;;;;11.10;4.93;;;20.60;90.80;;;;;;5020643;28;20430;-57
2021/11/08 12:22:53;;;;;;;7.50;4.03;;;22.20;87.70;;;;;;5036028;28;20371;-58
2021/11/08 12:25:22;;;;;;;12.43;5.40;;;24.00;82.40;;;;;;5035808;28;20397;-56
2021/11/08 12:28:08;;;;;;;11.83;5.23;;;23.80;79.90;;;;;;5036084;28;20401;-55
2021/11/08 12:30:37;;;;;;;8.70;4.30;;;24.90;75.90;;;;;;5035891;28;20456;-58
2021/11/08 12:33:26;;;;;;;6.10;4.20;;;23.10;76.10;;;;;;5035493;28;20390;-57
2021/11/08 12:35:54;;;;;;;7.93;3.90;;;23.40;75.40;;;;;;5035367;28;20733;-58
2021/11/08 12:38:24;;;;;;;6.67;3.73;;;24.50;74.00;;;;;;5035550;28;20442;-58
2021/11/08 12:41:17;;;;;;;8.30;3.80;;;25.50;70.90;;;;;;5035586;28;20906;-58
2021/11/08 12:43:50;;;;;;;9.80;4.27;;;24.70;68.20;;;;;;5034787;28;20523;-58
2021/11/08 12:46:25;;;;;;;10.57;4.50;;;23.60;70.90;;;;;;5035620;28;20784;-56
2021/11/08 12:49:03;;;;;;;8.73;4.50;;;23.30;69.60;;;;;;5035674;28;20412;-57
2021/11/08 12:51:29;;;;;;;10.70;4.33;;;24.00;69.30;;;;;;5033112;28;20448;-57
2021/11/08 12:54:08;;;;;;;6.37;3.70;;;21.90;73.10;;;;;;5025040;28;20430;-57
2021/11/08 12:56:41;;;;;;;11.73;5.13;;;20.70;74.80;;;;;;5017268;28;20423;-58
2021/11/08 12:59:21;;;;;;;11.50;3.80;;;22.00;74.50;;;;;;5015874;28;20927;-58
2021/11/08 13:02:07;;;;;;;10.67;4.10;;;23.00;71.80;;;;;;5015789;28;20419;-57
2021/11/08 13:04:44;;;;;;;8.87;4.43;;;24.60;69.10;;;;;;5015147;28;20394;-55
2021/11/08 13:07:12;;;;;;;7.90;3.80;;;23.30;69.80;;;;;;5014537;28;20474;-56
2021/11/08 13:09:44;;;;;;;7.93;4.37;;;23.50;69.80;;;;;;5015135;28;20419;-57
2021/11/08 13:12:19;;;;;;;6.50;3.83;;;21.00;73.30;;;;;;5014741;28;20406;-57
2021/11/08 13:14:45;;;;;;;15.73;9.07;;;21.00;73.60;;;;;;5026476;28;20492;-57
2021/11/08 13:17:17;;;;;;;8.80;4.33;;;21.20;73.50;;;;;;5034317;28;20410;-52
2021/11/08 13:20:03;;;;;;;9.80;4.30;;;21.60;73.40;;;;;;5034687;28;20460;-58
2021/11/08 13:22:35;;;;;;;14.53;4.80;;;21.20;73.70;;;;;;5034822;28;20405;-56
2021/11/08 13:25:09;;;;;;;12.33;4.87;;;20.60;73.60;;;;;;5035048;28;20434;-59
2021/11/08 13:27:37;;;;;;;11.33;5.13;;;20.00;74.70;;;;;;5034694;28;20410;-57
2021/11/08 13:30:08;;;;;;;8.13;4.00;;;20.00;75.40;;;;;;5034659;28;20456;-57
2021/11/08 13:32:35;;;;;;;9.37;3.97;;;19.40;76.40;;;;;;5034641;28;20387;-58
2021/11/08 13:35:24;;;;;;;10.47;4.50;;;18.50;80.20;;;;;;5034453;28;20398;-58
2021/11/08 13:38:20;;;;;;;9.07;3.73;;;17.30;82.50;;;;;;5034432;28;20391;-59
2021/11/08 13:40:56;;;;;;;7.70;4.13;;;16.40;85.20;;;;;;5021314;28;20437;-55
2021/11/08 13:43:33;;;;;;;10.20;4.17;;;16.20;88.90;;;;;;5034284;28;20440;-58
2021/11/08 13:46:00;;;;;;;7.17;3.93;;;15.90;89.10;;;;;;5034032;28;20432;-57
2021/11/08 13:48:28;;;;;;;6.07;3.90;;;15.30;88.40;;;;;;5033984;28;20802;-59
2021/11/08 13:50:55;;;;;;;8.87;4.63;;;14.90;90.00;;;;;;5033524;28;20461;-56
2021/11/08 13:53:28;;;;;;;9.00;4.50;;;14.60;91.30;;;;;;5033842;28;20822;-55
2021/11/08 13:56:12;;;;;;;10.17;5.90;;;14.00;94.20;;;;;;5033886;28;20409;-57
2021/11/08 13:58:46;;;;;;;10.13;4.70;;;;;;;;;;5034126;28;20387;-55
2021/11/08 14:01:11;;;;;;;9.03;4.83;;;13.10;97.60;;;;;;5033811;28;20787;-55
2021/11/08 14:03:44;;;;;;;9.83;4.37;;;12.60;98.50;;;;;;5034135;28;20398;-55
2021/11/08 14:06:12;;;;;;;6.83;4.20;;;12.40;99.60;;;;;;5033330;28;20527;-56
2021/11/08 14:08:45;;;;;;;13.90;5.07;;;12.30;99.70;;;;;;5033832;28;20457;-54
2021/11/08 14:11:11;;;;;;;13.67;4.53;;;12.20;99.90;;;;;;5033616;28;21010;-57
2021/11/08 14:13:38;;;;;;;10.00;4.63;;;12.00;99.90;;;;;;5045804;28;20480;-59
2021/11/08 14:16:06;;;;;;;8.90;4.30;;;12.10;99.90;;;;;;5033633;28;20193;-58
2021/11/08 14:18:32;;;;;;;12.13;4.90;;;12.10;99.90;;;;;;5033651;28;20402;-57
2021/11/08 14:21:13;;;;;;;9.53;4.33;;;12.00;99.90;;;;;;5030163;28;20430;-55
2021/11/08 14:23:41;;;;;;;8.73;4.37;;;11.90;99.90;;;;;;5033655;28;20394;-57
2021/11/08 14:26:15;;;;;;;6.27;3.97;;;11.70;99.90;;;;;;5033360;28;20455;-57
2021/11/08 14:28:47;;;;;;;12.13;4.10;;;11.60;99.90;;;;;;5033678;28;20436;-55
2021/11/08 14:31:23;;;;;;;9.53;3.93;;;11.70;99.90;;;;;;5033597;28;20431;-58
2021/11/08 14:33:55;;;;;;;6.90;4.27;;;11.80;99.90;;;;;;5033838;28;20816;-58
2021/11/08 14:36:25;;;;;;;9.20;4.50;;;11.70;99.90;;;;;;5033462;28;20433;-57
2021/11/08 14:38:58;;;;;;;10.40;4.40;;;12.00;99.90;;;;;;5033745;28;20392;-58
2021/11/08 14:41:24;;;;;;;5.97;4.47;;;12.20;99.90;;;;;;5032442;28;20517;-59
2021/11/08 14:43:58;;;;;;;6.70;4.10;;;12.30;99.90;;;;;;5033403;28;20417;-57